createdAt,value
2023-03-06T00:00:21.069Z,498.00
2023-03-06T00:01:21.093Z,499.00
2023-03-06T00:02:21.051Z,498.00
2023-03-06T00:03:21.089Z,497.00
2023-03-06T00:04:21.001Z,496.00
2023-03-06T00:05:21.002Z,495.00
2023-03-06T00:06:20.976Z,497.00
2023-03-06T00:07:20.944Z,497.00
2023-03-06T00:08:20.921Z,498.00
2023-03-06T00:09:20.904Z,498.00
2023-03-06T00:10:20.913Z,498.00
2023-03-06T00:11:20.883Z,497.00
2023-03-06T00:12:20.845Z,499.00
2023-03-06T00:13:20.852Z,497.00
2023-03-06T00:14:20.856Z,497.00
2023-03-06T00:15:20.777Z,498.00
2023-03-06T00:16:20.796Z,495.00
2023-03-06T00:17:20.741Z,496.00
2023-03-06T00:18:20.726Z,494.00
2023-03-06T00:19:20.709Z,493.00
2023-03-06T00:20:20.690Z,495.00
2023-03-06T00:21:20.685Z,495.00
2023-03-06T00:22:20.660Z,497.00
2023-03-06T00:23:20.633Z,498.00
2023-03-06T00:24:20.617Z,499.00
2023-03-06T00:25:20.597Z,500.00
2023-03-06T00:26:20.596Z,500.00
2023-03-06T00:27:20.551Z,500.00
2023-03-06T00:28:20.562Z,501.00
2023-03-06T00:29:20.522Z,500.00
2023-03-06T00:30:20.496Z,499.00
2023-03-06T00:31:20.519Z,501.00
2023-03-06T00:32:20.489Z,502.00
2023-03-06T00:33:20.498Z,500.00
2023-03-06T00:34:20.434Z,501.00
2023-03-06T00:35:20.465Z,499.00
2023-03-06T00:36:20.396Z,501.00
2023-03-06T00:37:20.366Z,501.00
2023-03-06T00:38:20.360Z,500.00
2023-03-06T00:39:20.364Z,498.00
2023-03-06T00:40:20.338Z,499.00
2023-03-06T00:41:20.299Z,499.00
2023-03-06T00:42:20.265Z,499.00
2023-03-06T00:45:20.227Z,503.00
2023-03-06T01:17:19.603Z,498.00
2023-03-06T01:18:19.589Z,496.00
2023-03-06T01:19:19.567Z,496.00
2023-03-06T01:20:19.541Z,496.00
2023-03-06T01:21:19.534Z,498.00
2023-03-06T01:22:19.507Z,498.00
2023-03-06T01:23:19.522Z,498.00
2023-03-06T01:24:19.477Z,499.00
2023-03-06T01:25:19.463Z,501.00
2023-03-06T01:26:19.444Z,498.00
2023-03-06T01:27:19.412Z,499.00
2023-03-06T01:28:19.379Z,499.00
2023-03-06T01:29:19.381Z,499.00
2023-03-06T01:30:19.345Z,502.00
2023-03-06T01:31:19.352Z,501.00
2023-03-06T01:32:19.351Z,500.00
2023-03-06T01:33:19.310Z,500.00
2023-03-06T01:34:19.250Z,503.00
2023-03-06T01:35:19.263Z,499.00
2023-03-06T01:36:19.259Z,500.00
2023-03-06T01:37:19.189Z,500.00
2023-03-06T01:38:19.157Z,500.00
2023-03-06T01:39:19.161Z,498.00
2023-03-06T01:40:19.125Z,497.00
2023-03-06T01:41:19.104Z,494.00
2023-03-06T01:42:19.081Z,494.00
2023-03-06T01:43:19.068Z,493.00
2023-03-06T01:44:19.036Z,494.00
2023-03-06T01:45:19.035Z,492.00
2023-03-06T01:46:19.009Z,492.00
2023-03-06T01:47:18.985Z,494.00
2023-03-06T01:48:18.950Z,493.00
2023-03-06T01:49:18.930Z,494.00
2023-03-06T01:50:18.906Z,492.00
2023-03-06T01:51:18.891Z,492.00
2023-03-06T01:52:18.845Z,493.00
2023-03-06T01:53:18.823Z,494.00
2023-03-06T01:54:18.795Z,493.00
2023-03-06T01:55:18.779Z,495.00
2023-03-06T01:56:18.804Z,494.00
2023-03-06T01:57:18.757Z,491.00
2023-03-06T01:58:18.724Z,491.00
2023-03-06T01:59:18.698Z,489.00
2023-03-06T02:00:18.678Z,490.00
2023-03-06T02:01:18.676Z,488.00
2023-03-06T02:02:18.659Z,490.00
2023-03-06T02:03:18.655Z,493.00
2023-03-06T02:04:18.571Z,494.00
2023-03-06T02:05:18.605Z,494.00
2023-03-06T02:06:18.524Z,493.00
2023-03-06T02:07:18.542Z,494.00
2023-03-06T02:08:18.509Z,492.00
2023-03-06T02:09:18.474Z,488.00
2023-03-06T02:10:18.444Z,487.00
2023-03-06T02:11:18.458Z,488.00
2023-03-06T02:12:18.395Z,488.00
2023-03-06T02:13:18.384Z,486.00
2023-03-06T02:14:18.358Z,484.00
2023-03-06T02:15:18.324Z,483.00
2023-03-06T02:16:18.402Z,486.00
2023-03-06T02:17:18.318Z,487.00
2023-03-06T02:18:18.276Z,486.00
2023-03-06T02:19:18.278Z,483.00
2023-03-06T02:20:18.235Z,484.00
2023-03-06T02:21:18.213Z,482.00
2023-03-06T02:22:18.182Z,481.00
2023-03-06T02:23:18.164Z,480.00
2023-03-06T02:24:18.131Z,482.00
2023-03-06T02:25:18.122Z,483.00
2023-03-06T02:26:18.103Z,485.00
2023-03-06T02:27:18.085Z,483.00
2023-03-06T02:28:18.059Z,482.00
2023-03-06T02:29:18.028Z,481.00
2023-03-06T02:30:18.004Z,482.00
2023-03-06T02:31:17.996Z,483.00
2023-03-06T02:32:17.993Z,483.00
2023-03-06T02:33:17.924Z,482.00
2023-03-06T02:34:17.896Z,485.00
2023-03-06T02:35:17.867Z,484.00
2023-03-06T02:36:17.829Z,485.00
2023-03-06T02:37:17.828Z,485.00
2023-03-06T02:38:17.780Z,485.00
2023-03-06T02:39:17.792Z,484.00
2023-03-06T02:40:17.798Z,485.00
2023-03-06T02:41:17.736Z,486.00
2023-03-06T02:42:17.714Z,486.00
2023-03-06T02:43:17.676Z,486.00
2023-03-06T02:44:17.695Z,485.00
2023-03-06T02:45:17.646Z,483.00
2023-03-06T02:46:17.658Z,482.00
2023-03-06T02:47:17.633Z,481.00
2023-03-06T02:48:17.604Z,481.00
2023-03-06T02:49:17.602Z,482.00
2023-03-06T02:50:17.563Z,484.00
2023-03-06T02:51:17.557Z,484.00
2023-03-06T02:52:17.523Z,484.00
2023-03-06T02:53:17.478Z,483.00
2023-03-06T02:54:17.504Z,481.00
2023-03-06T02:55:17.455Z,478.00
2023-03-06T02:56:17.439Z,477.00
2023-03-06T02:57:17.417Z,478.00
2023-03-06T02:58:17.386Z,478.00
2023-03-06T02:59:17.379Z,480.00
2023-03-06T03:00:17.363Z,481.00
2023-03-06T03:01:17.347Z,484.00
2023-03-06T03:02:17.323Z,483.00
2023-03-06T03:03:17.284Z,484.00
2023-03-06T03:04:17.311Z,483.00
2023-03-06T03:05:17.254Z,481.00
2023-03-06T03:06:17.248Z,482.00
2023-03-06T03:07:17.234Z,482.00
2023-03-06T03:08:17.201Z,483.00
2023-03-06T03:09:17.219Z,487.00
2023-03-06T03:10:17.124Z,486.00
2023-03-06T03:11:17.096Z,486.00
2023-03-06T03:12:17.159Z,487.00
2023-03-06T03:13:17.067Z,487.00
2023-03-06T03:14:17.036Z,489.00
2023-03-06T03:15:17.029Z,488.00
2023-03-06T03:16:17.027Z,489.00
2023-03-06T03:17:16.965Z,487.00
2023-03-06T03:18:16.927Z,485.00
2023-03-06T03:19:16.903Z,487.00
2023-03-06T03:20:16.873Z,489.00
2023-03-06T03:21:16.847Z,493.00
2023-03-06T03:22:16.841Z,491.00
2023-03-06T03:23:16.812Z,489.00
2023-03-06T03:24:16.857Z,489.00
2023-03-06T03:25:16.792Z,490.00
2023-03-06T03:26:16.760Z,489.00
2023-03-06T03:27:16.741Z,487.00
2023-03-06T03:28:16.754Z,487.00
2023-03-06T03:29:16.685Z,488.00
2023-03-06T03:30:16.679Z,492.00
2023-03-06T03:31:16.680Z,493.00
2023-03-06T03:32:16.641Z,490.00
2023-03-06T03:33:16.623Z,495.00
2023-03-06T03:34:16.559Z,496.00
2023-03-06T03:35:16.558Z,497.00
2023-03-06T03:36:16.531Z,497.00
2023-03-06T03:37:16.497Z,498.00
2023-03-06T03:38:16.490Z,497.00
2023-03-06T03:39:16.458Z,499.00
2023-03-06T03:40:16.466Z,495.00
2023-03-06T03:41:16.430Z,491.00
2023-03-06T03:42:16.396Z,488.00
2023-03-06T03:43:16.378Z,486.00
2023-03-06T03:44:16.335Z,485.00
2023-03-06T03:45:16.338Z,484.00
2023-03-06T03:46:16.365Z,486.00
2023-03-06T03:47:16.300Z,484.00
2023-03-06T03:48:16.274Z,484.00
2023-03-06T03:49:16.247Z,486.00
2023-03-06T03:50:16.215Z,485.00
2023-03-06T03:51:16.178Z,486.00
2023-03-06T03:52:16.171Z,487.00
2023-03-06T03:53:16.142Z,488.00
2023-03-06T03:54:16.109Z,490.00
2023-03-06T03:55:16.090Z,491.00
2023-03-06T04:09:15.787Z,486.00
2023-03-06T04:10:15.760Z,485.00
2023-03-06T04:11:15.762Z,483.00
2023-03-06T04:12:15.724Z,485.00
2023-03-06T04:13:15.694Z,487.00
2023-03-06T04:14:15.728Z,487.00
2023-03-06T04:15:15.661Z,484.00
2023-03-06T04:16:15.805Z,485.00
2023-03-06T04:17:15.623Z,486.00
2023-03-06T04:18:15.596Z,488.00
2023-03-06T04:19:15.605Z,491.00
2023-03-06T04:20:15.567Z,491.00
2023-03-06T04:21:15.548Z,492.00
2023-03-06T04:22:15.533Z,491.00
2023-03-06T04:23:15.514Z,491.00
2023-03-06T04:24:15.493Z,493.00
2023-03-06T04:25:15.487Z,493.00
2023-03-06T04:26:15.440Z,491.00
2023-03-06T04:27:15.432Z,488.00
2023-03-06T04:28:15.403Z,488.00
2023-03-06T04:29:15.373Z,489.00
2023-03-06T04:30:15.346Z,491.00
2023-03-06T06:38:15.765Z,666.00
2023-03-06T07:14:12.400Z,1062.00
2023-03-06T07:15:12.469Z,1066.00
2023-03-06T07:16:12.357Z,1071.00
2023-03-06T07:17:12.348Z,1079.00
2023-03-06T07:18:12.452Z,1083.00
2023-03-06T07:19:12.285Z,1086.00
2023-03-06T07:20:12.276Z,1088.00
2023-03-06T07:21:19.350Z,1092.00
2023-03-06T07:22:12.237Z,1091.00
2023-03-06T07:24:12.226Z,1082.00
2023-03-06T07:25:12.225Z,1104.00
2023-03-06T07:26:12.208Z,1100.00
2023-03-06T07:27:12.200Z,1104.00
2023-03-06T07:28:12.261Z,1109.00
2023-03-06T07:29:12.462Z,1102.00
2023-03-06T07:30:12.164Z,1098.00
2023-03-06T07:31:12.193Z,1098.00
2023-03-06T07:32:12.212Z,1092.00
2023-03-06T07:33:12.114Z,1073.00
2023-03-06T07:34:12.106Z,1073.00
2023-03-06T07:35:19.682Z,1076.00
2023-03-06T07:36:14.025Z,1082.00
2023-03-06T07:37:12.079Z,1085.00
2023-03-06T07:38:12.111Z,1081.00
2023-03-06T07:39:12.046Z,1079.00
2023-03-06T07:40:12.072Z,1073.00
2023-03-06T07:41:12.010Z,1067.00
2023-03-06T07:42:12.003Z,1163.00
2023-03-06T07:43:19.093Z,1152.00
2023-03-06T07:44:12.971Z,1085.00
2023-03-06T07:45:11.947Z,1021.00
2023-03-06T07:46:11.992Z,995.00
2023-03-06T07:47:11.919Z,983.00
2023-03-06T07:48:11.957Z,999.00
2023-03-06T07:49:11.864Z,1035.00
2023-03-06T07:50:11.853Z,1049.00
2023-03-06T07:51:11.883Z,1089.00
2023-03-06T07:52:11.814Z,1069.00
2023-03-06T07:53:11.842Z,1059.00
2023-03-06T07:54:11.835Z,1023.00
2023-03-06T07:55:11.767Z,1034.00
2023-03-06T07:56:11.745Z,1051.00
2023-03-06T07:57:11.711Z,1055.00
2023-03-06T07:58:11.699Z,1052.00
2023-03-06T07:59:11.684Z,1047.00
2023-03-06T08:00:11.701Z,1044.00
2023-03-06T08:01:11.653Z,1038.00
2023-03-06T08:02:11.699Z,1029.00
2023-03-06T08:03:11.618Z,1028.00
2023-03-06T08:04:11.658Z,1025.00
2023-03-06T08:05:11.542Z,1024.00
2023-03-06T08:06:11.517Z,1023.00
2023-03-06T08:07:11.543Z,1029.00
2023-03-06T08:08:11.498Z,1031.00
2023-03-06T08:09:11.478Z,1037.00
2023-03-06T08:10:11.494Z,1035.00
2023-03-06T08:11:11.436Z,1034.00
2023-03-06T08:12:11.391Z,1034.00
2023-03-06T08:13:11.392Z,1031.00
2023-03-06T08:14:11.350Z,1025.00
2023-03-06T08:15:11.323Z,1020.00
2023-03-06T08:16:11.341Z,1017.00
2023-03-06T08:17:11.317Z,1016.00
2023-03-06T08:18:11.285Z,1013.00
2023-03-06T08:19:11.233Z,1019.00
2023-03-06T08:20:11.229Z,1028.00
2023-03-06T08:21:11.191Z,1033.00
2023-03-06T08:22:11.206Z,1038.00
2023-03-06T08:23:11.248Z,1043.00
2023-03-06T08:24:11.125Z,1045.00
2023-03-06T08:25:11.097Z,1054.00
2023-03-06T08:26:11.071Z,1052.00
2023-03-06T08:27:11.074Z,1050.00
2023-03-06T08:28:11.036Z,1054.00
2023-03-06T08:29:10.996Z,1055.00
2023-03-06T08:30:10.989Z,1059.00
2023-03-06T08:31:10.987Z,1061.00
2023-03-06T08:32:10.940Z,1062.00
2023-03-06T08:33:10.930Z,1061.00
2023-03-06T08:34:10.904Z,1064.00
2023-03-06T08:35:10.898Z,1066.00
2023-03-06T08:36:10.874Z,1066.00
2023-03-06T08:37:10.887Z,1093.00
2023-03-06T08:38:10.829Z,1097.00
2023-03-06T08:39:10.835Z,1069.00
2023-03-06T08:40:10.804Z,1059.00
2023-03-06T08:41:10.768Z,997.00
2023-03-06T08:42:10.761Z,906.00
2023-03-06T08:43:13.001Z,721.00
2023-03-06T08:44:10.712Z,691.00
2023-03-06T08:45:10.708Z,698.00
2023-03-06T08:46:10.688Z,681.00
2023-03-06T08:47:10.703Z,645.00
2023-03-06T08:48:10.673Z,753.00
2023-03-06T08:49:10.680Z,759.00
2023-03-06T08:50:10.667Z,767.00
2023-03-06T08:51:10.651Z,779.00
2023-03-06T08:52:10.640Z,787.00
2023-03-06T08:53:10.684Z,790.00
2023-03-06T08:54:10.625Z,803.00
2023-03-06T08:55:10.615Z,834.00
2023-03-06T08:56:10.586Z,853.00
2023-03-06T08:57:10.679Z,861.00
2023-03-06T08:58:10.549Z,873.00
2023-03-06T08:59:10.554Z,890.00
2023-03-06T09:00:10.564Z,899.00
2023-03-06T09:01:10.645Z,910.00
2023-03-06T09:02:10.503Z,933.00
2023-03-06T09:03:10.474Z,947.00
2023-03-06T09:04:10.454Z,954.00
2023-03-06T09:05:10.419Z,958.00
2023-03-06T09:06:10.404Z,978.00
2023-03-06T09:07:10.388Z,981.00
2023-03-06T09:08:10.371Z,980.00
2023-03-06T09:09:10.522Z,981.00
2023-03-06T09:10:10.476Z,991.00
2023-03-06T09:11:10.376Z,996.00
2023-03-06T09:12:10.292Z,1006.00
2023-03-06T09:13:10.304Z,1034.00
2023-03-06T09:14:10.282Z,1035.00
2023-03-06T09:15:10.258Z,1041.00
2023-03-06T09:16:10.373Z,1054.00
2023-03-06T09:17:10.232Z,1050.00
2023-03-06T09:18:10.201Z,1037.00
2023-03-06T09:19:10.218Z,1012.00
2023-03-06T09:20:10.599Z,994.00
2023-03-06T09:21:10.176Z,972.00
2023-03-06T09:22:10.159Z,890.00
2023-03-06T09:23:10.148Z,845.00
2023-03-06T09:24:10.153Z,831.00
2023-03-06T09:25:10.114Z,821.00
2023-03-06T09:26:10.087Z,805.00
2023-03-06T09:27:10.083Z,782.00
2023-03-06T09:28:11.962Z,773.00
2023-03-06T09:29:10.052Z,761.00
2023-03-06T09:30:10.024Z,753.00
2023-03-06T09:31:10.099Z,810.00
2023-03-06T09:32:12.084Z,772.00
2023-03-06T09:33:10.009Z,768.00
2023-03-06T09:34:09.999Z,761.00
2023-03-06T09:35:10.018Z,752.00
2023-03-06T09:36:09.981Z,748.00
2023-03-06T09:37:09.964Z,741.00
2023-03-06T09:38:09.977Z,735.00
2023-03-06T09:39:09.996Z,722.00
2023-03-06T09:40:09.934Z,679.00
2023-03-06T09:41:09.937Z,667.00
2023-03-06T09:42:09.906Z,659.00
2023-03-06T09:43:09.902Z,651.00
2023-03-06T09:44:09.873Z,647.00
2023-03-06T09:45:09.862Z,639.00
2023-03-06T09:46:09.875Z,631.00
2023-03-06T09:47:09.845Z,632.00
2023-03-06T09:48:09.886Z,635.00
2023-03-06T09:49:09.809Z,664.00
2023-03-06T09:50:09.853Z,693.00
2023-03-06T09:51:09.779Z,777.00
2023-03-06T09:52:09.766Z,773.00
2023-03-06T09:53:09.785Z,774.00
2023-03-06T09:54:09.750Z,787.00
2023-03-06T09:55:09.753Z,846.00
2023-03-06T09:56:09.718Z,843.00
2023-03-06T09:57:09.722Z,850.00
2023-03-06T09:58:09.700Z,858.00
2023-03-06T09:59:09.697Z,866.00
2023-03-06T10:00:09.676Z,876.00
2023-03-06T10:01:09.646Z,880.00
2023-03-06T10:02:09.855Z,887.00
2023-03-06T10:03:09.785Z,912.00
2023-03-06T10:04:09.640Z,949.00
2023-03-06T10:05:09.714Z,1017.00
2023-03-06T10:06:09.568Z,1061.00
2023-03-06T10:07:09.559Z,1063.00
2023-03-06T10:08:09.537Z,1075.00
2023-03-06T10:09:09.530Z,1085.00
2023-03-06T10:10:09.526Z,1092.00
2023-03-06T10:11:09.507Z,1100.00
2023-03-06T10:12:09.490Z,1108.00
2023-03-06T10:13:09.457Z,1117.00
2023-03-06T10:14:09.444Z,1135.00
2023-03-06T10:15:09.440Z,1157.00
2023-03-06T10:16:09.462Z,1168.00
2023-03-06T10:17:09.397Z,1209.00
2023-03-06T10:18:09.375Z,1213.00
2023-03-06T10:19:09.360Z,1218.00
2023-03-06T10:20:09.332Z,1226.00
2023-03-06T10:21:18.646Z,1228.00
2023-03-06T10:22:10.313Z,1230.00
2023-03-06T10:23:11.032Z,1232.00
2023-03-06T10:24:09.284Z,1234.00
2023-03-06T10:25:09.259Z,1237.00
2023-03-06T10:26:09.286Z,1245.00
2023-03-06T10:27:09.245Z,1245.00
2023-03-06T10:28:09.236Z,1241.00
2023-03-06T10:29:09.272Z,1240.00
2023-03-06T10:30:09.239Z,1240.00
2023-03-06T10:31:09.211Z,1240.00
2023-03-06T10:32:09.147Z,1240.00
2023-03-06T10:33:09.119Z,1237.00
2023-03-06T10:34:09.077Z,1229.00
2023-03-06T10:35:09.058Z,1214.00
2023-03-06T10:36:09.038Z,1216.00
2023-03-06T10:37:09.006Z,1224.00
2023-03-06T10:38:09.006Z,1227.00
2023-03-06T10:39:09.016Z,1163.00
2023-03-06T10:40:08.967Z,1167.00
2023-03-06T10:41:08.909Z,1151.00
2023-03-06T10:42:08.888Z,1138.00
2023-03-06T10:43:11.835Z,1057.00
2023-03-06T10:44:08.869Z,1049.00
2023-03-06T10:45:08.841Z,1058.00
2023-03-06T10:47:08.821Z,1086.00
2023-03-06T10:48:08.793Z,1086.00
2023-03-06T10:49:08.830Z,1104.00
2023-03-06T10:50:08.731Z,1176.00
2023-03-06T10:52:08.718Z,1118.00
2023-03-06T11:12:08.358Z,1110.00
2023-03-06T11:24:11.845Z,1140.00
2023-03-06T11:25:08.049Z,1113.00
2023-03-06T11:26:08.005Z,1119.00
2023-03-06T11:27:07.976Z,1116.00
2023-03-06T11:28:07.966Z,1108.00
2023-03-06T11:29:07.975Z,1098.00
2023-03-06T11:30:07.895Z,1080.00
2023-03-06T11:31:07.887Z,1064.00
2023-03-06T11:32:07.911Z,1055.00
2023-03-06T11:33:07.831Z,1046.00
2023-03-06T11:34:07.801Z,1022.00
2023-03-06T11:35:07.777Z,1019.00
2023-03-06T11:36:07.759Z,1021.00
2023-03-06T11:37:07.734Z,1019.00
2023-03-06T11:38:07.704Z,1045.00
2023-03-06T11:39:07.674Z,1009.00
2023-03-06T11:40:07.649Z,1006.00
2023-03-06T11:41:07.614Z,1006.00
2023-03-06T11:42:07.756Z,1027.00
2023-03-06T11:43:07.573Z,1045.00
2023-03-06T11:44:07.561Z,1053.00
2023-03-06T11:45:07.547Z,1047.00
2023-03-06T11:46:07.480Z,1048.00
2023-03-06T11:47:07.485Z,1064.00
2023-03-06T11:48:07.450Z,1089.00
2023-03-06T11:49:07.415Z,1093.00
2023-03-06T11:50:07.392Z,1095.00
2023-03-06T11:51:07.406Z,1096.00
2023-03-06T11:52:07.356Z,1100.00
2023-03-06T11:53:07.321Z,1097.00
2023-03-06T11:54:07.288Z,1105.00
2023-03-06T11:55:07.269Z,1109.00
2023-03-06T11:56:07.254Z,1102.00
2023-03-06T11:57:07.228Z,1104.00
2023-03-06T11:58:07.190Z,1099.00
2023-03-06T11:59:07.160Z,1097.00
2023-03-06T12:00:07.133Z,1098.00
2023-03-06T12:01:07.113Z,1097.00
2023-03-06T12:02:07.095Z,1106.00
2023-03-06T12:03:07.067Z,1106.00
2023-03-06T12:04:07.034Z,1107.00
2023-03-06T12:05:07.073Z,1111.00
2023-03-06T12:06:06.970Z,1112.00
2023-03-06T12:07:07.775Z,1110.00
2023-03-06T12:08:06.976Z,1114.00
2023-03-06T12:09:06.898Z,1118.00
2023-03-06T12:10:06.894Z,1123.00
2023-03-06T12:12:06.824Z,1119.00
2023-03-06T12:13:06.784Z,1118.00
2023-03-06T12:14:06.772Z,1117.00
2023-03-06T12:15:06.769Z,1121.00
2023-03-06T12:16:06.726Z,1116.00
2023-03-06T12:17:06.704Z,1117.00
2023-03-06T12:18:06.653Z,1114.00
2023-03-06T12:19:06.672Z,1111.00
2023-03-06T12:20:06.615Z,1105.00
2023-03-06T12:21:06.589Z,1099.00
2023-03-06T12:22:06.563Z,1091.00
2023-03-06T12:23:14.951Z,1087.00
2023-03-06T12:24:07.535Z,1084.00
2023-03-06T12:25:06.498Z,1081.00
2023-03-06T12:26:06.483Z,1084.00
2023-03-06T12:27:06.436Z,1082.00
2023-03-06T12:28:06.418Z,1073.00
2023-03-06T12:29:06.383Z,1075.00
2023-03-06T12:30:06.362Z,1134.00
2023-03-06T12:31:06.337Z,1097.00
2023-03-06T12:32:06.684Z,1068.00
2023-03-06T12:33:06.266Z,1053.00
2023-03-06T12:34:06.253Z,1032.00
2023-03-06T12:35:06.447Z,1010.00
2023-03-06T12:36:06.207Z,980.00
2023-03-06T12:37:06.172Z,954.00
2023-03-06T12:38:06.148Z,935.00
2023-03-06T12:39:06.108Z,921.00
2023-03-06T12:40:06.078Z,895.00
2023-03-06T12:41:06.044Z,877.00
2023-03-06T12:42:11.290Z,868.00
2023-03-06T12:43:07.001Z,844.00
2023-03-06T12:44:05.949Z,829.00
2023-03-06T12:45:05.941Z,823.00
2023-03-06T12:46:05.891Z,804.00
2023-03-06T12:47:05.851Z,790.00
2023-03-06T12:48:05.820Z,784.00
2023-03-06T12:49:05.798Z,786.00
2023-03-06T12:50:05.758Z,783.00
2023-03-06T12:51:05.756Z,772.00
2023-03-06T12:52:05.729Z,766.00
2023-03-06T12:53:05.696Z,767.00
2023-03-06T12:54:05.661Z,764.00
2023-03-06T12:55:05.632Z,763.00
2023-03-06T12:56:05.622Z,761.00
2023-03-06T12:57:05.584Z,754.00
2023-03-06T12:58:05.553Z,749.00
2023-03-06T12:59:05.520Z,743.00
2023-03-06T13:00:05.505Z,736.00
2023-03-06T13:01:05.580Z,724.00
2023-03-06T13:02:05.535Z,726.00
2023-03-06T13:03:05.432Z,725.00
2023-03-06T13:04:05.402Z,725.00
2023-03-06T13:05:05.371Z,721.00
2023-03-06T13:06:05.358Z,719.00
2023-03-06T13:07:05.336Z,715.00
2023-03-06T13:08:05.310Z,711.00
2023-03-06T13:09:05.272Z,705.00
2023-03-06T13:10:05.247Z,706.00
2023-03-06T13:11:05.230Z,703.00
2023-03-06T13:12:05.203Z,702.00
2023-03-06T13:13:05.215Z,699.00
2023-03-06T13:14:05.155Z,694.00
2023-03-06T13:15:05.129Z,694.00
2023-03-06T13:16:05.094Z,690.00
2023-03-06T13:17:05.190Z,689.00
2023-03-06T13:18:05.056Z,687.00
2023-03-06T13:19:05.025Z,683.00
2023-03-06T13:20:04.990Z,680.00
2023-03-06T13:21:04.968Z,679.00
2023-03-06T13:22:04.924Z,677.00
2023-03-06T13:23:04.894Z,674.00
2023-03-06T13:24:04.869Z,668.00
2023-03-06T13:25:08.475Z,668.00
2023-03-06T13:26:04.862Z,668.00
2023-03-06T13:27:04.779Z,668.00
2023-03-06T13:28:04.765Z,665.00
2023-03-06T13:29:04.729Z,662.00
2023-03-06T13:30:04.701Z,661.00
2023-03-06T13:31:06.013Z,655.00
2023-03-06T13:32:04.866Z,652.00
2023-03-06T13:33:04.785Z,657.00
2023-03-06T13:34:04.783Z,727.00
2023-03-06T13:35:04.757Z,739.00
2023-03-06T13:36:04.723Z,756.00
2023-03-06T13:37:04.699Z,777.00
2023-03-06T13:38:04.662Z,794.00
2023-03-06T13:39:04.644Z,817.00
2023-03-06T13:40:04.655Z,835.00
2023-03-06T13:41:04.578Z,842.00
2023-03-06T13:42:04.585Z,853.00
2023-03-06T13:43:04.560Z,875.00
2023-03-06T13:44:04.534Z,874.00
2023-03-06T13:45:04.485Z,870.00
2023-03-06T13:46:04.528Z,874.00
2023-03-06T13:47:04.641Z,873.00
2023-03-06T13:48:30.390Z,871.00
2023-03-06T13:49:05.440Z,869.00
2023-03-06T13:50:04.365Z,866.00
2023-03-06T13:51:04.336Z,855.00
2023-03-06T13:52:04.316Z,848.00
2023-03-06T13:53:04.298Z,840.00
2023-03-06T13:54:04.290Z,771.00
2023-03-06T13:55:04.221Z,719.00
2023-03-06T13:56:04.243Z,704.00
2023-03-06T13:57:04.192Z,694.00
2023-03-06T13:58:04.171Z,686.00
2023-03-06T13:59:04.148Z,677.00
2023-03-06T14:00:09.179Z,606.00
2023-03-06T14:01:05.165Z,532.00
2023-03-06T14:02:04.092Z,561.00
2023-03-06T14:03:04.118Z,543.00
2023-03-06T14:04:04.068Z,531.00
2023-03-06T14:05:04.033Z,532.00
2023-03-06T14:06:04.006Z,544.00
2023-03-06T14:07:05.641Z,549.00
2023-03-06T14:08:04.014Z,553.00
2023-03-06T14:09:04.017Z,553.00
2023-03-06T14:10:03.982Z,554.00
2023-03-06T14:11:03.959Z,555.00
2023-03-06T14:12:03.955Z,556.00
2023-03-06T14:13:03.956Z,558.00
2023-03-06T14:14:03.940Z,555.00
2023-03-06T14:15:03.955Z,557.00
2023-03-06T14:16:04.017Z,558.00
2023-03-06T14:17:05.151Z,558.00
2023-03-06T14:18:04.024Z,558.00
2023-03-06T14:19:03.999Z,560.00
2023-03-06T14:20:04.015Z,557.00
2023-03-06T14:21:03.995Z,559.00
2023-03-06T14:22:04.045Z,562.00
2023-03-06T14:23:04.110Z,566.00
2023-03-06T14:24:04.143Z,567.00
2023-03-06T14:25:04.192Z,556.00
2023-03-06T14:26:04.232Z,598.00
2023-03-06T14:27:04.285Z,529.00
2023-03-06T14:28:13.720Z,532.00
2023-03-06T14:29:05.305Z,502.00
2023-03-06T14:30:04.347Z,503.00
2023-03-06T14:31:04.344Z,517.00
2023-03-06T14:32:04.301Z,543.00
2023-03-06T14:33:04.290Z,550.00
2023-03-06T14:34:04.297Z,563.00
2023-03-06T14:35:04.292Z,583.00
2023-03-06T14:36:04.280Z,607.00
2023-03-06T14:37:04.271Z,659.00
2023-03-06T14:38:04.266Z,669.00
2023-03-06T14:39:04.331Z,683.00
2023-03-06T14:40:04.276Z,711.00
2023-03-06T14:41:04.253Z,655.00
2023-03-06T14:42:04.249Z,666.00
2023-03-06T14:43:04.219Z,664.00
2023-03-06T14:44:04.210Z,661.00
2023-03-06T14:45:04.397Z,619.00
2023-03-06T14:46:04.270Z,624.00
2023-03-06T14:47:04.158Z,617.00
2023-03-06T14:48:04.155Z,608.00
2023-03-06T14:49:04.281Z,577.00
2023-03-06T14:50:04.136Z,586.00
2023-03-06T14:51:04.129Z,592.00
2023-03-06T14:52:04.135Z,598.00
2023-03-06T14:53:04.099Z,642.00
2023-03-06T14:54:04.119Z,644.00
2023-03-06T14:55:04.102Z,639.00
2023-03-06T14:56:05.943Z,647.00
2023-03-06T14:57:04.077Z,659.00
2023-03-06T14:58:04.070Z,663.00
2023-03-06T14:59:04.074Z,667.00
2023-03-06T15:00:04.107Z,673.00
2023-03-06T15:01:04.077Z,676.00
2023-03-06T15:02:04.083Z,670.00
2023-03-06T15:03:04.109Z,655.00
2023-03-06T15:04:04.046Z,667.00
2023-03-06T15:05:04.046Z,663.00
2023-03-06T15:06:04.050Z,669.00
2023-03-06T15:07:04.084Z,723.00
2023-03-06T15:08:04.050Z,721.00
2023-03-06T15:09:06.543Z,722.00
2023-03-06T15:10:04.023Z,729.00
2023-03-06T15:11:04.013Z,735.00
2023-03-06T15:12:04.007Z,744.00
2023-03-06T15:13:03.987Z,782.00
2023-03-06T15:14:03.973Z,794.00
2023-03-06T15:15:03.964Z,804.00
2023-03-06T15:16:04.030Z,814.00
2023-03-06T15:17:03.942Z,833.00
2023-03-06T15:18:03.925Z,837.00
2023-03-06T15:19:03.939Z,840.00
2023-03-06T15:20:03.923Z,841.00
2023-03-06T15:21:03.904Z,858.00
2023-03-06T15:22:03.865Z,861.00
2023-03-06T15:23:03.862Z,863.00
2023-03-06T15:24:03.841Z,859.00
2023-03-06T15:25:03.838Z,851.00
2023-03-06T15:26:03.824Z,845.00
2023-03-06T15:27:03.800Z,839.00
2023-03-06T15:28:03.805Z,832.00
2023-03-06T15:29:09.266Z,821.00
2023-03-06T15:30:04.763Z,812.00
2023-03-06T15:31:03.754Z,799.00
2023-03-06T15:32:03.755Z,794.00
2023-03-06T15:33:03.718Z,786.00
2023-03-06T15:34:03.684Z,778.00
2023-03-06T15:35:03.683Z,774.00
2023-03-06T15:36:03.665Z,767.00
2023-03-06T15:37:03.624Z,760.00
2023-03-06T15:38:03.617Z,751.00
2023-03-06T15:39:03.588Z,746.00
2023-03-06T15:40:03.598Z,741.00
2023-03-06T15:41:03.563Z,735.00
2023-03-06T15:42:05.093Z,730.00
2023-03-06T15:43:03.509Z,725.00
2023-03-06T15:44:03.506Z,721.00
2023-03-06T15:45:03.466Z,716.00
2023-03-06T15:46:03.493Z,708.00
2023-03-06T15:47:08.731Z,697.00
2023-03-06T15:48:04.430Z,693.00
2023-03-06T15:49:03.434Z,693.00
2023-03-06T15:50:03.376Z,691.00
2023-03-06T15:51:03.409Z,683.00
2023-03-06T15:52:03.338Z,679.00
2023-03-06T15:53:03.307Z,676.00
2023-03-06T15:54:11.852Z,676.00
2023-03-06T15:55:04.266Z,675.00
2023-03-06T15:56:03.259Z,673.00
2023-03-06T15:57:03.244Z,674.00
2023-03-06T15:58:03.212Z,675.00
2023-03-06T15:59:03.192Z,675.00
2023-03-06T16:00:03.197Z,674.00
2023-03-06T16:01:03.196Z,673.00
2023-03-06T16:02:03.157Z,673.00
2023-03-06T16:03:03.131Z,672.00
2023-03-06T16:04:03.166Z,675.00
2023-03-06T16:05:03.139Z,678.00
2023-03-06T16:06:03.078Z,678.00
2023-03-06T16:07:03.061Z,679.00
2023-03-06T16:08:03.036Z,679.00
2023-03-06T16:09:03.029Z,679.00
2023-03-06T16:10:03.007Z,680.00
2023-03-06T16:11:03.001Z,679.00
2023-03-06T16:12:02.982Z,679.00
2023-03-06T16:13:03.005Z,678.00
2023-03-06T16:14:02.952Z,681.00
2023-03-06T16:15:02.930Z,680.00
2023-03-06T16:16:02.901Z,681.00
2023-03-06T16:17:02.888Z,683.00
2023-03-06T16:18:02.867Z,683.00
2023-03-06T16:19:02.835Z,684.00
2023-03-06T16:20:02.815Z,684.00
2023-03-06T16:21:02.805Z,688.00
2023-03-06T16:22:02.780Z,689.00
2023-03-06T16:23:02.782Z,690.00